createdAt,value
2023-02-23T00:00:51.712Z,18.85
2023-02-23T00:03:37.120Z,17.42
2023-02-23T00:06:24.274Z,19.27
2023-02-23T00:09:22.757Z,20.40
2023-02-23T00:12:08.500Z,19.10
2023-02-23T00:14:54.284Z,21.42
2023-02-23T00:17:41.097Z,21.52
2023-02-23T00:20:29.595Z,19.23
2023-02-23T00:23:15.150Z,21.38
2023-02-23T00:26:04.314Z,23.38
2023-02-23T00:28:53.506Z,20.00
2023-02-23T00:31:39.165Z,23.13
2023-02-23T00:34:24.901Z,23.58
2023-02-23T00:37:12.297Z,18.98
2023-02-23T00:39:57.851Z,19.33
2023-02-23T00:42:47.641Z,18.50
2023-02-23T00:45:33.904Z,19.13
2023-02-23T00:48:19.309Z,19.55
2023-02-23T00:51:06.112Z,20.52
2023-02-23T00:53:55.208Z,19.70
2023-02-23T00:56:41.425Z,21.25
2023-02-23T00:59:26.714Z,21.98
2023-02-23T01:02:12.482Z,22.17
2023-02-23T01:04:58.025Z,19.75
2023-02-23T01:07:46.521Z,22.38
2023-02-23T01:10:32.253Z,22.38
2023-02-23T01:13:18.462Z,20.85
2023-02-23T01:16:13.697Z,21.10
2023-02-23T01:19:03.507Z,19.40
2023-02-23T01:21:49.176Z,19.88
2023-02-23T01:24:35.171Z,18.23
2023-02-23T01:27:20.954Z,18.77
2023-02-23T01:30:07.768Z,19.95
2023-02-23T01:32:53.286Z,19.90
2023-02-23T01:35:38.565Z,20.33
2023-02-23T01:38:24.107Z,22.08
2023-02-23T01:41:09.783Z,22.10
2023-02-23T01:43:58.811Z,22.05
2023-02-23T01:46:46.433Z,18.60
2023-02-23T01:49:36.427Z,19.08
2023-02-23T01:52:21.664Z,18.95
2023-02-23T01:55:12.942Z,17.55
2023-02-23T01:58:15.391Z,16.67
2023-02-23T02:01:02.925Z,17.80
2023-02-23T02:03:58.040Z,16.23
2023-02-23T02:06:46.409Z,17.38
2023-02-23T02:09:39.408Z,16.42
2023-02-23T02:12:26.046Z,16.63
2023-02-23T02:15:17.105Z,14.55
2023-02-23T02:18:11.545Z,15.48
2023-02-23T02:21:17.251Z,13.20
2023-02-23T02:24:22.091Z,11.82
2023-02-23T02:27:37.937Z,9.88
2023-02-23T02:31:00.144Z,10.50
2023-02-23T02:34:06.746Z,13.60
2023-02-23T02:37:17.129Z,12.88
2023-02-23T02:40:17.230Z,9.82
2023-02-23T02:43:11.342Z,11.32
2023-02-23T02:46:11.045Z,10.05
2023-02-23T02:49:20.673Z,9.48
2023-02-23T02:52:29.189Z,11.23
2023-02-23T02:55:25.643Z,9.25
2023-02-23T02:58:12.821Z,9.45
2023-02-23T03:01:25.290Z,16.15
2023-02-23T03:04:43.998Z,10.05
2023-02-23T03:08:14.177Z,10.27
2023-02-23T03:11:34.525Z,9.70
2023-02-23T03:14:45.340Z,7.28
2023-02-23T03:17:58.317Z,8.68
2023-02-23T03:21:08.408Z,8.45
2023-02-23T03:24:44.115Z,8.65
2023-02-23T03:28:09.644Z,9.13
2023-02-23T03:31:38.074Z,6.50
2023-02-23T03:34:55.988Z,9.05
2023-02-23T03:38:26.624Z,12.98
2023-02-23T03:41:32.405Z,10.43
2023-02-23T03:44:42.872Z,11.68
2023-02-23T03:47:50.744Z,11.57
2023-02-23T03:51:01.347Z,12.00
2023-02-23T03:54:34.707Z,15.13
2023-02-23T03:57:41.679Z,13.00
2023-02-23T04:00:55.500Z,13.48
2023-02-23T04:04:03.045Z,14.27
2023-02-23T04:07:09.093Z,12.32
2023-02-23T04:10:12.966Z,17.02
2023-02-23T04:13:16.526Z,12.43
2023-02-23T04:16:10.129Z,14.20
2023-02-23T04:18:55.989Z,15.32
2023-02-23T04:21:41.498Z,11.80
2023-02-23T04:24:26.819Z,13.27
2023-02-23T04:27:13.597Z,14.88
2023-02-23T04:29:59.113Z,10.52
2023-02-23T04:32:46.050Z,12.20
2023-02-23T04:35:31.799Z,13.93
2023-02-23T04:38:17.036Z,13.25
2023-02-23T04:41:02.127Z,12.18
2023-02-23T04:43:47.648Z,12.55
2023-02-23T04:46:33.455Z,13.82
2023-02-23T04:49:19.082Z,12.50
2023-02-23T04:52:04.894Z,13.40
2023-02-23T04:54:50.394Z,13.02
2023-02-23T04:57:35.966Z,14.38
2023-02-23T05:00:21.570Z,12.45
2023-02-23T05:03:07.313Z,11.32
2023-02-23T05:05:52.929Z,12.90
2023-02-23T05:08:38.557Z,12.32
2023-02-23T05:11:24.977Z,13.23
2023-02-23T05:14:12.543Z,10.57
2023-02-23T05:16:58.169Z,9.80
2023-02-23T05:19:43.688Z,9.77
2023-02-23T05:22:29.861Z,11.50
2023-02-23T05:25:15.004Z,14.02
2023-02-23T05:28:00.798Z,9.68
2023-02-23T05:30:46.211Z,13.43
2023-02-23T05:33:33.068Z,14.38
2023-02-23T05:36:20.466Z,10.27
2023-02-23T05:39:05.963Z,11.10
2023-02-23T05:41:51.361Z,11.90
2023-02-23T05:44:36.895Z,10.93
2023-02-23T05:47:22.004Z,8.13
2023-02-23T05:50:11.554Z,8.68
2023-02-23T05:52:57.143Z,8.10
2023-02-23T05:55:42.690Z,9.40
2023-02-23T05:58:28.607Z,8.38
2023-02-23T06:01:14.205Z,10.00
2023-02-23T06:03:59.679Z,6.38
2023-02-23T06:06:45.795Z,8.35
2023-02-23T06:09:31.037Z,8.60
2023-02-23T06:12:17.097Z,6.97
2023-02-23T06:15:02.628Z,5.38
2023-02-23T06:17:48.199Z,8.73
2023-02-23T06:20:34.089Z,6.90
2023-02-23T06:23:19.954Z,5.97
2023-02-23T06:26:06.118Z,7.72
2023-02-23T06:28:51.236Z,6.63
2023-02-23T06:31:36.720Z,8.63
2023-02-23T06:34:22.320Z,6.10
2023-02-23T06:37:09.355Z,8.23
2023-02-23T06:39:55.129Z,5.47
2023-02-23T06:42:40.365Z,6.60
2023-02-23T06:45:26.340Z,7.65
2023-02-23T06:48:12.127Z,4.55
2023-02-23T06:51:01.032Z,5.10
2023-02-23T06:53:46.188Z,9.90
2023-02-23T06:56:31.922Z,5.78
2023-02-23T06:59:17.423Z,5.78
2023-02-23T07:02:06.349Z,5.63
2023-02-23T07:04:52.188Z,5.45
2023-02-23T07:07:38.217Z,5.28
2023-02-23T07:10:24.255Z,7.93
2023-02-23T07:13:10.262Z,5.60
2023-02-23T07:15:57.706Z,8.00
2023-02-23T07:18:43.716Z,4.25
2023-02-23T07:21:29.597Z,5.45
2023-02-23T07:24:15.159Z,6.85
2023-02-23T07:27:00.831Z,8.13
2023-02-23T07:29:46.301Z,6.93
2023-02-23T07:32:31.971Z,6.93
2023-02-23T07:35:18.125Z,4.40
2023-02-23T07:38:04.432Z,7.50
2023-02-23T07:40:53.078Z,4.20
2023-02-23T07:43:38.523Z,4.50
2023-02-23T07:46:23.903Z,5.38
2023-02-23T07:49:09.894Z,7.50
2023-02-23T07:51:55.469Z,7.88
2023-02-23T07:54:40.980Z,9.20
2023-02-23T07:57:26.986Z,7.03
2023-02-23T08:00:12.853Z,6.70
2023-02-23T08:02:58.434Z,5.35
2023-02-23T08:05:44.956Z,5.50
2023-02-23T08:08:30.752Z,7.85
2023-02-23T08:11:16.807Z,8.52
2023-02-23T08:14:02.856Z,8.00
2023-02-23T08:16:50.579Z,10.48
2023-02-23T08:19:37.390Z,6.65
2023-02-23T08:22:22.933Z,6.90
2023-02-23T08:25:09.102Z,8.75
2023-02-23T08:27:54.642Z,5.15
2023-02-23T08:30:41.225Z,8.00
2023-02-23T08:33:27.049Z,4.63
2023-02-23T08:36:12.624Z,4.78
2023-02-23T08:38:58.181Z,6.30
2023-02-23T08:41:43.906Z,6.38
2023-02-23T08:44:30.225Z,6.53
2023-02-23T08:47:17.827Z,5.68
2023-02-23T08:50:05.166Z,7.72
2023-02-23T08:52:50.676Z,5.97
2023-02-23T08:55:38.783Z,3.78
2023-02-23T08:58:26.039Z,5.63
2023-02-23T09:01:22.039Z,4.28
2023-02-23T09:04:07.993Z,6.88
2023-02-23T09:06:54.432Z,4.15
2023-02-23T09:09:40.458Z,4.70
2023-02-23T09:12:25.838Z,6.68
2023-02-23T09:15:11.776Z,12.43
2023-02-23T09:18:02.395Z,3.85
2023-02-23T09:20:48.020Z,4.85
2023-02-23T09:23:36.971Z,4.57
2023-02-23T09:26:23.893Z,4.78
2023-02-23T09:29:09.842Z,3.70
2023-02-23T09:31:58.292Z,3.03
2023-02-23T09:34:43.695Z,3.58
2023-02-23T09:37:29.335Z,3.60
2023-02-23T09:40:18.025Z,2.33
2023-02-23T09:43:12.770Z,1.58
2023-02-23T09:46:29.940Z,1.92
2023-02-23T09:49:19.414Z,3.25
2023-02-23T09:52:07.173Z,4.75
2023-02-23T09:54:52.978Z,6.15
2023-02-23T09:57:42.516Z,3.58
2023-02-23T10:00:28.884Z,4.55
2023-02-23T10:03:18.283Z,5.28
2023-02-23T10:06:09.811Z,7.72
2023-02-23T10:09:21.605Z,6.88
2023-02-23T10:12:31.553Z,5.70
2023-02-23T10:15:33.672Z,10.25
2023-02-23T10:18:22.072Z,5.20
2023-02-23T10:21:14.679Z,10.70
2023-02-23T10:24:19.520Z,5.50
2023-02-23T10:27:17.777Z,4.35
2023-02-23T10:30:05.055Z,8.60
2023-02-23T10:33:04.847Z,9.00
2023-02-23T10:36:07.440Z,8.75
2023-02-23T10:38:58.385Z,7.00
2023-02-23T10:41:44.794Z,13.60
2023-02-23T10:44:30.311Z,10.10
2023-02-23T10:47:26.637Z,12.15
2023-02-23T10:50:15.468Z,14.07
2023-02-23T10:53:18.460Z,7.95
2023-02-23T10:56:17.805Z,10.98
2023-02-23T10:59:03.576Z,11.52
2023-02-23T11:02:01.495Z,10.13
2023-02-23T11:04:57.999Z,18.58
2023-02-23T11:07:45.192Z,12.95
2023-02-23T11:10:32.199Z,13.85
2023-02-23T11:13:27.453Z,11.82
2023-02-23T11:16:22.136Z,8.07
2023-02-23T11:19:25.105Z,11.65
2023-02-23T11:22:23.422Z,15.55
2023-02-23T11:25:28.508Z,15.98
2023-02-23T11:28:33.563Z,11.32
2023-02-23T11:31:22.500Z,8.25
2023-02-23T11:34:08.517Z,12.23
2023-02-23T11:37:20.205Z,7.38
2023-02-23T11:40:26.265Z,9.63
2023-02-23T11:43:19.098Z,5.90
2023-02-23T11:46:05.269Z,7.70
2023-02-23T11:49:14.757Z,5.93
2023-02-23T11:52:00.158Z,6.32
2023-02-23T11:54:54.740Z,7.07
2023-02-23T11:57:40.409Z,8.20
2023-02-23T12:00:27.963Z,4.07
2023-02-23T12:03:22.795Z,9.70
2023-02-23T12:06:10.269Z,4.45
2023-02-23T12:09:13.130Z,10.02
2023-02-23T12:12:14.927Z,8.30
2023-02-23T12:15:11.877Z,6.35
2023-02-23T12:18:02.782Z,5.90
2023-02-23T12:20:54.221Z,5.70
2023-02-23T12:23:43.970Z,4.32
2023-02-23T12:26:33.980Z,6.60
2023-02-23T12:29:57.630Z,8.30
2023-02-23T12:32:58.014Z,5.47
2023-02-23T12:35:53.337Z,7.45
2023-02-23T12:38:51.203Z,17.50
2023-02-23T12:41:42.504Z,2.35
2023-02-23T12:44:43.241Z,4.00
2023-02-23T12:47:51.134Z,5.65
2023-02-23T12:50:48.396Z,2.30
2023-02-23T12:53:42.860Z,3.85
2023-02-23T12:56:50.968Z,3.45
2023-02-23T13:00:10.365Z,1.73
2023-02-23T13:03:09.968Z,3.08
2023-02-23T13:06:12.625Z,7.55
2023-02-23T13:09:24.894Z,6.30
2023-02-23T13:12:13.245Z,4.05
2023-02-23T13:15:29.756Z,2.55
2023-02-23T13:18:21.388Z,4.85
2023-02-23T13:21:28.969Z,3.15
2023-02-23T13:24:23.419Z,4.03
2023-02-23T13:27:23.526Z,5.97
2023-02-23T13:30:13.350Z,2.92
2023-02-23T13:33:14.585Z,5.47
2023-02-23T13:36:03.198Z,6.15
2023-02-23T13:39:31.652Z,9.23
2023-02-23T13:42:42.427Z,8.10
2023-02-23T13:45:36.091Z,4.00
2023-02-23T13:48:57.965Z,6.30
2023-02-23T13:51:55.587Z,6.75
2023-02-23T13:54:57.366Z,12.77
2023-02-23T13:57:44.101Z,8.93
2023-02-23T14:00:29.741Z,5.68
2023-02-23T14:03:27.363Z,6.90
2023-02-23T14:06:16.874Z,8.98
2023-02-23T14:09:18.673Z,10.73
2023-02-23T14:12:06.891Z,10.60
2023-02-23T14:14:52.144Z,4.65
2023-02-23T14:17:41.215Z,4.57
2023-02-23T14:20:38.821Z,7.78
2023-02-23T14:23:24.404Z,6.22
2023-02-23T14:26:37.630Z,9.13
2023-02-23T14:29:26.557Z,7.47
2023-02-23T14:32:14.959Z,6.70
2023-02-23T14:35:01.701Z,8.68
2023-02-23T14:38:19.161Z,8.77
2023-02-23T14:41:05.871Z,9.68
2023-02-23T14:44:00.295Z,8.85
2023-02-23T14:46:57.438Z,9.20
2023-02-23T14:49:57.344Z,12.73
2023-02-23T14:52:43.505Z,8.35
2023-02-23T14:55:35.499Z,5.97
2023-02-23T14:58:29.240Z,11.90
2023-02-23T15:01:35.829Z,7.43
2023-02-23T15:04:24.008Z,8.63
2023-02-23T15:07:24.250Z,9.98
2023-02-23T15:10:20.851Z,9.68
2023-02-23T15:13:10.611Z,9.70
2023-02-23T15:16:29.304Z,6.53
2023-02-23T15:19:23.456Z,9.13
2023-02-23T15:22:27.268Z,7.45
2023-02-23T15:25:23.144Z,7.32
2023-02-23T15:28:23.547Z,6.93
2023-02-23T15:31:12.345Z,8.63
2023-02-23T15:33:58.169Z,7.20
2023-02-23T15:36:47.246Z,7.57
2023-02-23T15:39:47.228Z,11.25
2023-02-23T15:42:37.892Z,7.68
2023-02-23T15:45:32.972Z,9.95
2023-02-23T15:48:22.790Z,6.43
2023-02-23T15:51:29.898Z,12.32
2023-02-23T15:54:27.135Z,18.27
2023-02-23T15:57:22.840Z,10.13
2023-02-23T16:00:35.771Z,4.55
2023-02-23T16:03:26.599Z,8.43
2023-02-23T16:06:32.723Z,9.75
2023-02-23T16:09:21.053Z,11.40
2023-02-23T16:12:14.481Z,11.57
2023-02-23T16:15:23.967Z,9.85
2023-02-23T16:18:23.109Z,13.77
2023-02-23T16:21:17.341Z,8.70
2023-02-23T16:24:09.367Z,13.07
2023-02-23T16:27:02.245Z,8.50
2023-02-23T16:29:55.482Z,11.17
2023-02-23T16:32:42.254Z,7.88
2023-02-23T16:35:36.759Z,8.02
2023-02-23T16:38:28.367Z,9.40
2023-02-23T16:41:21.487Z,7.95
2023-02-23T16:44:12.381Z,8.93
2023-02-23T16:47:01.623Z,9.70
2023-02-23T16:49:47.385Z,11.50
2023-02-23T16:52:33.211Z,10.57
2023-02-23T16:55:25.447Z,11.25
2023-02-23T16:58:18.155Z,6.55
2023-02-23T17:01:03.539Z,14.95
2023-02-23T17:03:53.175Z,10.45
2023-02-23T17:06:39.363Z,17.85
2023-02-23T17:09:25.275Z,9.73
2023-02-23T17:12:21.728Z,9.55
2023-02-23T17:15:17.254Z,10.50
2023-02-23T17:18:05.053Z,13.52
2023-02-23T17:21:12.663Z,12.40
2023-02-23T17:24:06.025Z,10.88
2023-02-23T17:26:52.559Z,7.95
2023-02-23T17:29:38.492Z,8.68
2023-02-23T17:32:27.120Z,14.00
2023-02-23T17:35:15.953Z,10.57
2023-02-23T17:38:03.304Z,13.82
2023-02-23T17:40:50.134Z,13.85
2023-02-23T17:43:43.810Z,15.57
2023-02-23T17:46:59.880Z,13.38
2023-02-23T17:49:49.017Z,16.40
2023-02-23T17:52:34.830Z,16.75
2023-02-23T17:55:22.879Z,12.23
2023-02-23T17:58:21.931Z,17.50
2023-02-23T18:01:08.832Z,17.25
2023-02-23T18:04:10.685Z,16.60
2023-02-23T18:07:05.676Z,16.40
2023-02-23T18:10:06.760Z,20.90
2023-02-23T18:12:55.109Z,16.88
2023-02-23T18:15:41.061Z,15.65
2023-02-23T18:18:28.913Z,15.32
2023-02-23T18:21:20.285Z,20.05
2023-02-23T18:24:09.036Z,17.30
2023-02-23T18:27:00.800Z,7.32
2023-02-23T18:29:46.525Z,19.23
2023-02-23T18:32:32.515Z,15.88
2023-02-23T18:35:19.187Z,15.30
2023-02-23T18:38:10.313Z,14.85
2023-02-23T18:40:57.345Z,17.10
2023-02-23T18:43:43.472Z,20.35
2023-02-23T18:46:29.804Z,15.30
2023-02-23T18:49:22.437Z,13.25
2023-02-23T18:52:09.208Z,10.60
2023-02-23T18:54:54.558Z,18.20
2023-02-23T18:57:40.373Z,14.30
2023-02-23T19:00:26.128Z,18.90
2023-02-23T19:03:12.841Z,18.88
2023-02-23T19:05:59.066Z,14.38
2023-02-23T19:08:49.246Z,12.35
2023-02-23T19:11:35.599Z,18.58
2023-02-23T19:14:32.949Z,19.67
2023-02-23T19:17:22.624Z,16.27
2023-02-23T19:20:12.915Z,20.77
2023-02-23T19:23:08.189Z,17.65
2023-02-23T19:25:53.737Z,17.40
2023-02-23T19:28:39.117Z,17.27
2023-02-23T19:31:26.263Z,25.20
2023-02-23T19:34:12.136Z,22.23
2023-02-23T19:36:57.935Z,23.77
2023-02-23T19:39:45.014Z,24.52
2023-02-23T19:42:32.626Z,16.70
2023-02-23T19:45:18.753Z,13.80
2023-02-23T19:48:04.756Z,22.40
2023-02-23T19:50:51.613Z,15.80
2023-02-23T19:53:37.436Z,17.55
2023-02-23T19:56:27.550Z,19.02
2023-02-23T19:59:13.194Z,10.13
2023-02-23T20:01:59.117Z,16.23
2023-02-23T20:04:49.086Z,21.92
2023-02-23T20:07:35.052Z,16.15
2023-02-23T20:10:25.737Z,17.67
2023-02-23T20:13:11.678Z,20.63
2023-02-23T20:16:14.277Z,17.67
2023-02-23T20:19:00.191Z,20.05
2023-02-23T20:21:45.513Z,18.73
2023-02-23T20:24:31.573Z,22.27
2023-02-23T20:27:19.232Z,20.85
2023-02-23T20:30:05.414Z,19.67
2023-02-23T20:32:51.137Z,12.77
2023-02-23T20:35:36.673Z,20.38
2023-02-23T20:38:22.584Z,21.85
2023-02-23T20:41:08.601Z,19.65
2023-02-23T20:43:55.353Z,29.30
2023-02-23T20:46:42.643Z,17.60
2023-02-23T20:49:29.731Z,18.27
2023-02-23T20:52:15.173Z,20.02
2023-02-23T20:55:01.028Z,22.10
2023-02-23T20:57:49.448Z,17.15
2023-02-23T21:00:35.492Z,18.65
2023-02-23T21:03:21.754Z,23.50
2023-02-23T21:06:07.631Z,20.50
2023-02-23T21:08:55.923Z,22.35
2023-02-23T21:11:41.564Z,27.77
2023-02-23T21:14:27.013Z,28.55
2023-02-23T21:17:12.693Z,18.48
2023-02-23T21:19:58.262Z,22.58
2023-02-23T21:22:43.742Z,18.52
2023-02-23T21:25:30.169Z,23.77
2023-02-23T21:28:16.651Z,22.25
2023-02-23T21:31:02.965Z,20.73
2023-02-23T21:33:49.605Z,20.83
2023-02-23T21:36:35.731Z,22.00
2023-02-23T21:39:23.115Z,17.92
2023-02-23T21:42:08.736Z,22.20
2023-02-23T21:44:54.243Z,20.75
2023-02-23T21:47:42.079Z,25.83
2023-02-23T21:50:40.231Z,21.35
2023-02-23T21:53:26.081Z,20.85
2023-02-23T21:56:18.580Z,19.10
2023-02-23T21:59:34.387Z,22.73
2023-02-23T22:02:20.372Z,19.83
2023-02-23T22:05:07.582Z,18.05
2023-02-23T22:07:55.022Z,24.27
2023-02-23T22:10:40.628Z,14.77
2023-02-23T22:13:26.258Z,20.35
2023-02-23T22:16:14.203Z,21.40
2023-02-23T22:19:03.844Z,20.38
2023-02-23T22:21:49.287Z,23.90
2023-02-23T22:24:34.708Z,14.77
2023-02-23T22:27:20.473Z,20.17
2023-02-23T22:30:06.580Z,20.73
2023-02-23T22:32:52.497Z,17.65
2023-02-23T22:35:41.558Z,20.30
2023-02-23T22:38:27.670Z,17.77
2023-02-23T22:41:13.873Z,23.80
2023-02-23T22:43:59.467Z,19.67
2023-02-23T22:46:48.132Z,22.27
2023-02-23T22:49:34.713Z,16.45
2023-02-23T22:52:20.606Z,38.42
2023-02-23T22:55:06.553Z,22.48
2023-02-23T22:57:52.553Z,19.13
2023-02-23T23:00:37.829Z,16.23
2023-02-23T23:03:23.587Z,21.40
2023-02-23T23:06:13.244Z,22.98
2023-02-23T23:08:58.877Z,15.90
2023-02-23T23:11:45.267Z,18.70
2023-02-23T23:14:32.659Z,15.88
2023-02-23T23:17:20.212Z,17.65
2023-02-23T23:20:11.868Z,22.52
2023-02-23T23:22:57.495Z,18.75
2023-02-23T23:25:47.333Z,21.80
2023-02-23T23:28:40.056Z,16.73
2023-02-23T23:31:29.573Z,15.45
2023-02-23T23:34:21.896Z,18.42
2023-02-23T23:37:08.686Z,25.17
2023-02-23T23:39:59.598Z,25.48
2023-02-23T23:42:46.682Z,21.85
2023-02-23T23:45:38.145Z,16.42
2023-02-23T23:48:25.388Z,20.35
2023-02-23T23:51:11.620Z,14.20
2023-02-23T23:53:59.746Z,20.13
2023-02-23T23:56:45.929Z,18.13
2023-02-23T23:59:33.733Z,17.45
